• Join FlightAware (Why Join?)
  • Login
  • US Flag 
08:48AM EDT


 

Airport Tracker/Info


-or-


 

Live Flight TrackerFlight Track Log ✈ RPA3228 ✈ 20-May-2013 ✈ KDCA - KBTV

Flight Track Log - Related Links

Times and Time Zones

All times are in EDT time to prevent confusion due to time zone crossing. See the RPA3228 flight status page for this flight to view local times or setup timezone preferences in your user account.

Time Position Orientation Groundspeed Altitude Reporting Facility
EDT Latitude Longitude Course Direction KTS MPH feet Rate Location/Type
10:26AM 38.9000 -77.0833 83° East 200 230 2,300  Level Potomac TRACON
10:27AM 38.9500 -77.1333 322° Northwest 250 288 4,400 2,520 Climbing Potomac TRACON
10:28AM 38.9765 -76.6637 57° Northeast  Level FlightAware Approximate
10:28AM 39.0167 -77.1833 330° Northwest 285 328 7,400  Level Potomac TRACON
10:29AM 39.0253 -76.5406 67° East  Level FlightAware Approximate
10:29AM 39.0667 -77.1000 52° Northeast 305 351 10,000  Level Potomac TRACON
10:30AM 39.0738 -76.4167 61° Northeast  Level FlightAware Approximate
10:31AM 39.1167 -76.2921 90° East  Level FlightAware Approximate
10:32AM 39.1547 -76.1704 83° East  Level FlightAware Approximate
10:32AM 39.0836 -76.8725 84° East 311 358 14,800  Level Washington Center
10:33AM 39.0975 -76.7525 81° East 317 365 16,900 1,740 Climbing Washington Center
10:34AM 39.1089 -76.6347 83° East 322 371 18,400 1,440 Climbing Washington Center
10:35AM 39.1203 -76.5119 83° East 333 383 19,800 1,500 Climbing Washington Center
10:36AM 39.1317 -76.3836 83° East 344 396 21,400 1,500 Climbing Washington Center
10:37AM 39.1428 -76.2553 84° East 355 409 22,900 780 Climbing Washington Center
10:38AM 39.1603 -76.1217 80° East 365 420 23,000 600 Climbing Washington Center
10:39AM 39.1733 -75.9931 83° East 370 426 24,100 1,200 Climbing Washington Center
10:40AM 39.2047 -75.8647 72° East 370 426 25,500 1,380 Climbing Washington Center
10:41AM 39.2906 -75.7578 44° Northeast 363 418 26,900 1,200 Climbing Washington Center
10:42AM 39.3614 -75.6667 45° Northeast 380 437 28,000 1,320 Climbing Washington Center
10:44AM 39.5333 -75.4411 45° Northeast 408 470 31,000 960 Climbing New York Center
10:45AM 39.6036 -75.3461 46° Northeast 408 470 31,000  Level New York Center
10:46AM 39.6828 -75.2381 46° Northeast 408 470 31,000  Level New York Center
10:47AM 39.7600 -75.1294 47° Northeast 413 475 31,000  Level New York Center
10:48AM 39.8414 -75.0128 48° Northeast 413 475 31,000  Level New York Center
10:49AM 39.9283 -74.9069 43° Northeast 407 468 31,000  Level New York Center
10:50AM 40.0086 -74.8225 39° Northeast 397 457 31,000  Level New York Center
10:51AM 40.0911 -74.7242 42° Northeast 403 464 31,000  Level New York Center
10:52AM 40.1736 -74.6256 42° Northeast 403 464 31,000  Level New York Center
10:53AM 40.2583 -74.5133 45° Northeast 403 464 31,000  Level New York Center
10:54AM 40.3342 -74.4250 42° Northeast 397 457 31,000  Level New York Center
10:55AM 40.4272 -74.3153 42° Northeast 397 457 31,000  Level New York Center
10:56AM 40.4986 -74.2261 44° Northeast 397 457 31,000  Level New York Center
10:57AM 40.5828 -74.1239 43° Northeast 397 457 31,000  Level New York Center
10:59AM 40.7864 -73.8819 42° Northeast 414 476 31,000  Level Boston Center
11:00AM 40.8750 -73.7961 36° Northeast 402 463 31,000  Level Boston Center
11:01AM 40.9856 -73.7903 North 379 436 31,000  Level Boston Center
11:02AM 41.0981 -73.7953 358° North 403 464 31,000  Level Boston Center
11:03AM 41.2064 -73.8031 357° North 403 464 31,000  Level Boston Center
11:04AM 41.3125 -73.8081 358° North 392 451 31,000  Level Boston Center
11:05AM 41.4250 -73.8106 359° North 387 445 31,000  Level Boston Center
11:06AM 41.5356 -73.8156 358° North 387 445 31,000  Level Boston Center
11:07AM 41.6458 -73.8236 357° North 387 445 31,000  Level Boston Center
11:08AM 41.7522 -73.8203 North 381 438 31,000  Level Boston Center
11:09AM 41.8667 -73.8228 359° North 376 433 31,000  Level Boston Center
11:10AM 41.9772 -73.8197 North 382 440 31,000  Level Boston Center
11:11AM 42.0836 -73.8192 360° North 382 440 31,000  Level Boston Center
11:12AM 42.1817 -73.8158 North 382 440 31,000  Level Boston Center
11:13AM 42.2878 -73.8153 360° North 382 440 31,000  Level Boston Center
11:14AM 42.3983 -73.8119 North 387 445 31,000  Level Boston Center
11:15AM 42.5067 -73.8117 360° North 387 445 31,000  Level Boston Center
11:16AM 42.6111 -73.8083 North 381 438 31,000  Level Boston Center
11:17AM 42.7194 -73.8050 North 381 438 31,000  Level Boston Center
11:18AM 42.8239 -73.7761 11° North 386 444 31,000  Level Boston Center
11:19AM 42.9308 -73.7361 15° North 386 444 31,000  Level Boston Center
11:20AM 43.0353 -73.6983 15° North 391 450 31,000  Level Boston Center
11:21AM 43.1525 -73.6553 15° North 399 459 31,000  Level Boston Center
11:22AM 43.2592 -73.6119 16° North 399 459 31,000 -60 Level Boston Center
11:23AM 43.3639 -73.5739 15° North 399 459 30,900 -1,200 Descending Boston Center
11:24AM 43.4664 -73.5328 16° North 394 453 28,600 -2,340 Descending Boston Center
11:25AM 43.5689 -73.4947 15° North 388 447 26,300 -2,340 Descending Boston Center
11:26AM 43.6672 -73.4619 14° North 376 433 24,000 -2,280 Descending Boston Center
11:27AM 43.7611 -73.4261 15° North 363 418 21,800 -2,100 Descending Boston Center
11:28AM 43.8531 -73.3903 16° North 345 397 19,800 -2,040 Descending Boston Center
11:29AM 43.9389 -73.3597 14° North 329 379 17,800 -2,040 Descending Boston Center
11:30AM 44.0267 -73.3236 16° North 318 366 15,800 -1,920 Descending Boston Center
11:31AM 44.1103 -73.2931 15° North 318 366 14,000 -1,500 Descending Boston Center
11:32AM 44.1831 -73.2942 359° North 287 330 12,900 -1,380 Descending Boston Center
11:33AM 44.2517 -73.3328 338° Northwest 245 282 11,000 -1,560 Descending Boston Center
11:34AM 44.3181 -73.3656 341° North 245 282 9,500 -1,500 Descending Boston Center
11:35AM 44.3781 -73.3986 339° North 240 276 8,100 -780 Descending Boston Center
11:36AM 44.4300 -73.4256 340° North 220 253 8,000 -660 Descending Boston Center
11:37AM 44.4778 -73.4497 340° North 172 198 6,800 -1,320 Descending Boston Center
11:38AM 44.5117 -73.3950 49° Northeast 144 166 5,400 -1,380 Descending Boston Center
11:39AM 44.5389 -73.3486 51° Northeast 150 173 4,100 -1,500 Descending Boston Center
11:40AM 44.5706 -73.2967 49° Northeast 171 197 2,400 -960 Descending Boston Center
11:41AM 44.6125 -73.2886 North 141 162 2,200 -120 Descending Boston Center
11:42AM 44.6122 -73.3208 269° West 78 90 2,200  Level Boston Center